createdAt,value
2017-10-30T00:02:20.448Z,5.37
2017-10-30T00:04:47.872Z,5.47
2017-10-30T00:07:15.329Z,6.60
2017-10-30T00:09:42.762Z,4.80
2017-10-30T00:12:10.953Z,5.13
2017-10-30T00:14:39.154Z,5.67
2017-10-30T00:17:07.586Z,6.80
2017-10-30T00:19:35.049Z,6.40
2017-10-30T00:22:03.237Z,6.53
2017-10-30T00:24:31.443Z,6.97
2017-10-30T00:26:58.861Z,5.70
2017-10-30T00:29:27.061Z,6.90
2017-10-30T00:31:54.486Z,6.23
2017-10-30T00:34:21.911Z,6.60
2017-10-30T00:36:49.342Z,6.63
2017-10-30T00:39:16.784Z,6.80
2017-10-30T00:41:44.214Z,7.20
2017-10-30T00:44:11.669Z,6.63
2017-10-30T00:46:39.120Z,7.37
2017-10-30T00:49:06.527Z,6.67
2017-10-30T00:51:33.961Z,6.87
2017-10-30T00:54:01.393Z,6.70
2017-10-30T00:56:28.820Z,6.80
2017-10-30T00:58:56.273Z,5.50
2017-10-30T01:01:23.697Z,6.20
2017-10-30T01:03:51.217Z,6.60
2017-10-30T01:06:18.649Z,5.80
2017-10-30T01:08:46.083Z,8.70
2017-10-30T01:11:13.513Z,6.07
2017-10-30T01:13:41.713Z,6.50
2017-10-30T01:16:09.141Z,6.93
2017-10-30T01:18:37.398Z,6.47
2017-10-30T01:21:04.828Z,7.40
2017-10-30T01:23:32.268Z,6.00
2017-10-30T01:25:59.774Z,6.00
2017-10-30T01:28:27.979Z,7.20
2017-10-30T01:30:55.402Z,6.10
2017-10-30T01:33:22.828Z,6.27
2017-10-30T01:35:50.263Z,7.20
2017-10-30T01:38:17.688Z,6.27
2017-10-30T01:40:45.881Z,5.60
2017-10-30T01:43:13.313Z,6.20
2017-10-30T01:45:41.514Z,6.43
2017-10-30T01:48:08.942Z,6.83
2017-10-30T01:50:37.141Z,7.17
2017-10-30T01:53:04.568Z,7.20
2017-10-30T01:55:31.996Z,7.43
2017-10-30T01:57:59.433Z,6.50
2017-10-30T02:00:26.856Z,6.63
2017-10-30T02:02:55.052Z,6.33
2017-10-30T02:05:22.476Z,7.30
2017-10-30T02:07:50.767Z,6.43
2017-10-30T02:10:18.194Z,7.13
2017-10-30T02:12:45.614Z,6.17
2017-10-30T02:15:13.040Z,7.53
2017-10-30T02:17:40.476Z,8.67
2017-10-30T02:20:07.902Z,6.70
2017-10-30T02:22:35.378Z,6.23
2017-10-30T02:25:02.841Z,5.90
2017-10-30T02:27:30.259Z,5.87
2017-10-30T02:29:57.693Z,7.47
2017-10-30T02:32:25.112Z,6.70
2017-10-30T02:34:52.593Z,7.83
2017-10-30T02:37:20.770Z,6.80
2017-10-30T02:39:48.216Z,6.43
2017-10-30T02:42:16.407Z,7.40
2017-10-30T02:44:44.849Z,7.13
2017-10-30T02:47:12.277Z,7.03
2017-10-30T02:49:39.717Z,6.90
2017-10-30T02:52:07.144Z,9.60
2017-10-30T02:54:35.337Z,9.07
2017-10-30T02:57:02.763Z,6.67
2017-10-30T02:59:30.963Z,7.53
2017-10-30T03:01:58.392Z,5.87
2017-10-30T03:04:26.586Z,7.90
2017-10-30T03:06:54.782Z,7.03
2017-10-30T03:09:22.221Z,7.10
2017-10-30T03:11:50.404Z,7.07
2017-10-30T03:14:17.823Z,6.53
2017-10-30T03:16:45.257Z,7.70
2017-10-30T03:19:12.677Z,7.47
2017-10-30T03:21:40.124Z,7.70
2017-10-30T03:24:07.544Z,8.23
2017-10-30T03:26:34.967Z,7.63
2017-10-30T03:29:02.397Z,7.73
2017-10-30T03:31:29.817Z,7.60
2017-10-30T03:33:59.220Z,7.63
2017-10-30T03:36:26.655Z,7.40
2017-10-30T03:38:54.133Z,6.30
2017-10-30T03:41:21.591Z,7.80
2017-10-30T03:43:48.999Z,7.97
2017-10-30T03:46:16.416Z,7.60
2017-10-30T03:48:44.620Z,7.70
2017-10-30T03:51:12.045Z,9.20
2017-10-30T03:53:40.241Z,8.80
2017-10-30T03:56:07.659Z,7.10
2017-10-30T03:58:35.093Z,7.77
2017-10-30T04:01:02.513Z,6.67
2017-10-30T04:03:29.940Z,8.93
2017-10-30T04:05:57.367Z,7.43
2017-10-30T04:08:24.797Z,7.80
2017-10-30T04:10:52.216Z,7.40
2017-10-30T04:13:20.409Z,6.97
2017-10-30T04:15:47.845Z,6.80
2017-10-30T04:18:15.305Z,7.40
2017-10-30T04:20:42.720Z,7.93
2017-10-30T04:23:11.129Z,8.10
2017-10-30T04:25:38.553Z,7.13
2017-10-30T04:28:05.980Z,7.77
2017-10-30T04:30:33.422Z,7.43
2017-10-30T04:33:01.612Z,7.97
2017-10-30T04:35:29.069Z,7.73
2017-10-30T04:37:56.492Z,8.63
2017-10-30T04:40:23.924Z,7.20
2017-10-30T04:42:51.361Z,7.47
2017-10-30T04:45:18.791Z,8.70
2017-10-30T04:47:47.244Z,7.50
2017-10-30T04:50:14.695Z,8.23
2017-10-30T04:52:42.112Z,6.40
2017-10-30T04:55:09.629Z,8.03
2017-10-30T04:57:37.037Z,9.07
2017-10-30T05:00:04.481Z,8.50
2017-10-30T05:02:31.908Z,8.90
2017-10-30T05:04:59.394Z,8.23
2017-10-30T05:07:26.808Z,10.47
2017-10-30T05:09:54.996Z,8.40
2017-10-30T05:12:22.433Z,7.80
2017-10-30T05:14:49.845Z,7.90
2017-10-30T05:17:17.276Z,9.50
2017-10-30T05:19:44.703Z,7.50
2017-10-30T05:22:12.131Z,9.20
2017-10-30T05:24:39.563Z,9.30
2017-10-30T05:27:06.996Z,9.70
2017-10-30T05:29:34.426Z,9.73
2017-10-30T05:32:01.851Z,9.27
2017-10-30T05:34:29.283Z,8.43
2017-10-30T05:36:56.704Z,9.07
2017-10-30T05:39:24.900Z,8.00
2017-10-30T05:41:52.320Z,8.50
2017-10-30T05:44:19.749Z,8.63
2017-10-30T05:46:47.173Z,8.70
2017-10-30T05:49:14.600Z,9.00
2017-10-30T05:51:42.026Z,8.73
2017-10-30T05:54:09.466Z,8.17
2017-10-30T05:56:36.914Z,10.60
2017-10-30T05:59:04.329Z,8.23
2017-10-30T06:01:32.527Z,8.40
2017-10-30T06:04:00.724Z,8.50
2017-10-30T06:06:28.911Z,9.87
2017-10-30T06:08:58.360Z,11.13
2017-10-30T06:11:26.556Z,9.57
2017-10-30T06:13:55.028Z,10.83
2017-10-30T06:16:22.471Z,10.13
2017-10-30T06:18:49.920Z,9.77
2017-10-30T06:21:17.354Z,11.40
2017-10-30T06:23:44.779Z,11.97
2017-10-30T06:26:12.204Z,11.63
2017-10-30T06:28:40.396Z,10.57
2017-10-30T06:31:07.827Z,10.97
2017-10-30T06:33:35.253Z,9.83
2017-10-30T06:36:02.686Z,11.23
2017-10-30T06:38:30.113Z,11.77
2017-10-30T06:40:58.483Z,10.53
2017-10-30T06:43:26.664Z,9.57
2017-10-30T06:45:54.847Z,10.57
2017-10-30T06:48:22.284Z,11.70
2017-10-30T06:50:50.472Z,10.10
2017-10-30T06:53:18.688Z,11.13
2017-10-30T06:55:46.121Z,9.70
2017-10-30T06:58:13.550Z,9.43
2017-10-30T07:00:40.960Z,9.60
2017-10-30T07:03:08.405Z,9.13
2017-10-30T07:05:35.824Z,9.63
2017-10-30T07:08:05.019Z,8.40
2017-10-30T07:10:33.208Z,9.00
2017-10-30T07:13:01.405Z,8.43
2017-10-30T07:15:28.824Z,8.93
2017-10-30T07:17:57.011Z,9.23
2017-10-30T07:20:24.432Z,8.47
2017-10-30T07:22:51.869Z,8.43
2017-10-30T07:25:19.288Z,7.80
2017-10-30T07:27:46.716Z,8.30
2017-10-30T07:30:14.141Z,7.33
2017-10-30T07:32:41.571Z,8.47
2017-10-30T07:35:08.987Z,7.10
2017-10-30T07:37:37.197Z,7.43
2017-10-30T07:40:04.647Z,8.00
2017-10-30T07:42:32.074Z,7.60
2017-10-30T07:44:59.500Z,7.80
2017-10-30T07:47:31.184Z,8.00
2017-10-30T07:49:58.603Z,7.20
2017-10-30T07:52:26.032Z,7.50
2017-10-30T07:54:53.459Z,7.97
2017-10-30T07:57:21.657Z,7.17
2017-10-30T07:59:49.088Z,8.70
2017-10-30T08:02:16.512Z,8.93
2017-10-30T08:04:43.953Z,8.00
2017-10-30T08:07:11.377Z,7.03
2017-10-30T08:09:40.564Z,6.73
2017-10-30T08:12:09.752Z,7.70
2017-10-30T08:14:37.205Z,6.80
2017-10-30T08:17:04.627Z,7.23
2017-10-30T08:19:32.071Z,8.40
2017-10-30T08:21:59.494Z,7.70
2017-10-30T08:24:27.693Z,7.43
2017-10-30T08:26:55.113Z,8.53
2017-10-30T08:29:22.547Z,7.33
2017-10-30T08:31:49.974Z,6.87
2017-10-30T08:34:17.414Z,6.60
2017-10-30T08:36:44.852Z,7.20
2017-10-30T08:39:13.045Z,5.83
2017-10-30T08:41:42.424Z,6.77
2017-10-30T08:44:10.620Z,7.10
2017-10-30T08:46:38.061Z,6.30
2017-10-30T08:49:06.272Z,7.00
2017-10-30T08:51:33.707Z,7.97
2017-10-30T08:54:01.133Z,6.90
2017-10-30T08:56:28.591Z,8.20
2017-10-30T08:58:56.030Z,8.00
2017-10-30T09:01:23.461Z,7.80
2017-10-30T09:03:50.888Z,7.30
2017-10-30T09:06:19.097Z,6.70
2017-10-30T09:08:46.520Z,8.20
2017-10-30T09:11:20.083Z,6.90
2017-10-30T09:13:47.509Z,8.83
2017-10-30T09:16:14.941Z,7.07
2017-10-30T09:18:56.035Z,8.00
2017-10-30T09:21:23.470Z,7.10
2017-10-30T09:23:50.903Z,7.67
2017-10-30T09:26:18.332Z,7.87
2017-10-30T09:28:45.761Z,8.30
2017-10-30T09:31:13.192Z,6.67
2017-10-30T09:33:41.387Z,8.10
2017-10-30T09:36:08.828Z,7.37
2017-10-30T09:38:36.257Z,6.70
2017-10-30T09:41:03.681Z,6.20
2017-10-30T09:43:31.120Z,6.03
2017-10-30T09:45:58.541Z,6.03
2017-10-30T09:48:26.747Z,6.90
2017-10-30T09:50:54.175Z,6.83
2017-10-30T09:53:22.369Z,5.43
2017-10-30T09:55:49.793Z,5.17
2017-10-30T09:58:17.983Z,7.03
2017-10-30T10:00:46.196Z,6.13
2017-10-30T10:03:13.620Z,6.33
2017-10-30T10:05:41.040Z,5.70
2017-10-30T10:08:08.475Z,6.30
2017-10-30T10:10:35.926Z,5.77
2017-10-30T10:13:03.363Z,5.50
2017-10-30T10:15:30.803Z,6.17
2017-10-30T10:17:58.240Z,5.63
2017-10-30T10:20:25.672Z,5.43
2017-10-30T10:22:53.109Z,6.77
2017-10-30T10:25:20.540Z,6.40
2017-10-30T10:27:48.069Z,7.13
2017-10-30T10:30:15.497Z,5.80
2017-10-30T10:32:42.937Z,6.43
2017-10-30T10:35:11.484Z,6.63
2017-10-30T10:37:39.791Z,6.60
2017-10-30T10:40:07.225Z,5.83
2017-10-30T10:42:34.656Z,5.50
2017-10-30T10:45:02.079Z,5.57
2017-10-30T10:47:29.516Z,7.10
2017-10-30T10:49:56.944Z,6.10
2017-10-30T10:52:25.136Z,6.37
2017-10-30T10:54:52.656Z,6.80
2017-10-30T10:57:20.079Z,5.40
2017-10-30T10:59:48.279Z,5.97
2017-10-30T11:02:15.700Z,5.23
2017-10-30T11:04:43.147Z,5.40
2017-10-30T11:07:10.662Z,5.60
2017-10-30T11:09:38.104Z,5.17
2017-10-30T11:12:05.532Z,5.03
2017-10-30T11:14:32.972Z,5.60
2017-10-30T11:17:00.680Z,6.60
2017-10-30T11:19:30.547Z,5.77
2017-10-30T11:21:57.968Z,4.80
2017-10-30T11:24:26.173Z,6.30
2017-10-30T11:26:53.595Z,5.57
2017-10-30T11:29:21.048Z,5.73
2017-10-30T11:31:48.473Z,5.90
2017-10-30T11:34:15.910Z,6.00
2017-10-30T11:36:43.364Z,4.97
2017-10-30T11:39:11.542Z,5.50
2017-10-30T11:41:38.964Z,4.93
2017-10-30T11:44:07.160Z,5.47
2017-10-30T11:46:34.591Z,5.57
2017-10-30T11:49:02.127Z,4.10
2017-10-30T11:51:29.553Z,4.60
2017-10-30T11:53:57.059Z,4.30
2017-10-30T11:56:38.669Z,3.47
2017-10-30T11:59:06.663Z,4.03
2017-10-30T12:01:34.063Z,3.37
2017-10-30T12:04:01.493Z,3.70
2017-10-30T12:06:28.993Z,3.60
2017-10-30T12:08:56.420Z,4.40
2017-10-30T12:11:23.849Z,3.73
2017-10-30T12:13:51.280Z,4.80
2017-10-30T12:16:19.472Z,4.10
2017-10-30T12:18:47.008Z,3.50
2017-10-30T12:21:16.216Z,3.50
2017-10-30T12:23:43.651Z,4.13
2017-10-30T12:26:11.202Z,3.20
2017-10-30T12:28:40.837Z,4.10
2017-10-30T12:31:09.041Z,3.87
2017-10-30T12:33:36.452Z,4.07
2017-10-30T12:36:10.734Z,4.33
2017-10-30T12:38:38.171Z,4.40
2017-10-30T12:41:05.660Z,3.87
2017-10-30T12:43:33.621Z,3.83
2017-10-30T12:46:01.046Z,3.60
2017-10-30T12:48:46.568Z,4.00
2017-10-30T12:51:14.021Z,4.20
2017-10-30T12:53:41.445Z,3.23
2017-10-30T12:56:08.868Z,3.60
2017-10-30T12:58:37.070Z,4.40
2017-10-30T13:01:04.509Z,4.30
2017-10-30T13:03:32.714Z,3.80
2017-10-30T13:06:00.144Z,4.60
2017-10-30T13:08:28.396Z,3.90
2017-10-30T13:10:55.828Z,3.50
2017-10-30T13:13:24.068Z,3.37
2017-10-30T13:15:51.509Z,4.17
2017-10-30T13:18:19.713Z,3.30
2017-10-30T13:20:47.132Z,3.70
2017-10-30T13:23:15.323Z,3.37
2017-10-30T13:25:42.760Z,2.93
2017-10-30T13:28:10.948Z,3.83
2017-10-30T13:30:38.375Z,3.47
2017-10-30T13:33:05.799Z,3.13
2017-10-30T13:35:33.232Z,3.27
2017-10-30T13:38:00.690Z,2.97
2017-10-30T13:40:28.110Z,3.50
2017-10-30T13:42:55.536Z,3.20
2017-10-30T13:45:22.958Z,2.50
2017-10-30T13:47:50.384Z,2.83
2017-10-30T13:50:18.647Z,3.27
2017-10-30T13:52:46.068Z,3.13
2017-10-30T13:55:13.516Z,2.27
2017-10-30T13:57:40.931Z,3.40
2017-10-30T14:00:09.215Z,3.10
2017-10-30T14:02:36.637Z,2.70
2017-10-30T14:05:04.069Z,3.60
2017-10-30T14:07:31.492Z,2.50
2017-10-30T14:09:58.928Z,2.83
2017-10-30T14:12:27.117Z,2.80
2017-10-30T14:14:55.328Z,3.50
2017-10-30T14:17:22.756Z,2.80
2017-10-30T14:19:50.956Z,3.07
2017-10-30T14:22:18.907Z,2.90
2017-10-30T14:24:46.344Z,2.90
2017-10-30T14:27:14.544Z,3.10
2017-10-30T14:29:41.978Z,2.90
2017-10-30T14:32:10.192Z,3.63
2017-10-30T14:34:37.747Z,2.23
2017-10-30T14:37:06.209Z,3.40
2017-10-30T14:39:33.636Z,2.20
2017-10-30T14:42:01.081Z,3.10
2017-10-30T14:44:28.552Z,2.87
2017-10-30T14:46:56.006Z,2.33
2017-10-30T14:49:23.473Z,2.53
2017-10-30T14:51:51.660Z,2.53
2017-10-30T14:54:19.852Z,2.50
2017-10-30T14:56:47.299Z,2.97
2017-10-30T14:59:15.499Z,2.50
2017-10-30T15:01:42.924Z,2.90
2017-10-30T15:04:11.126Z,2.87
2017-10-30T15:06:38.613Z,2.93
2017-10-30T15:09:06.037Z,2.07
2017-10-30T15:11:33.480Z,2.40
2017-10-30T15:14:00.927Z,2.40
2017-10-30T15:16:29.200Z,2.30
2017-10-30T15:18:57.384Z,2.60
2017-10-30T15:21:24.819Z,3.13
2017-10-30T15:23:52.243Z,3.00
2017-10-30T15:26:19.670Z,2.53
2017-10-30T15:28:47.096Z,2.90
2017-10-30T15:31:15.289Z,2.70
2017-10-30T15:33:42.733Z,2.97
2017-10-30T15:36:10.920Z,2.50
2017-10-30T15:38:38.344Z,4.00
2017-10-30T15:41:05.775Z,2.07
2017-10-30T15:43:33.199Z,2.07
2017-10-30T15:46:00.669Z,1.87
2017-10-30T15:48:28.085Z,2.60
2017-10-30T15:50:55.532Z,2.20
2017-10-30T15:53:22.960Z,3.00
2017-10-30T15:55:50.425Z,2.13
2017-10-30T15:58:17.825Z,3.00
2017-10-30T16:00:45.258Z,2.47
2017-10-30T16:03:12.672Z,2.07
2017-10-30T16:05:40.107Z,2.57
2017-10-30T16:08:08.547Z,2.37
2017-10-30T16:10:35.979Z,2.80
2017-10-30T16:13:03.399Z,2.30
2017-10-30T16:15:30.822Z,2.20
2017-10-30T16:17:58.248Z,3.00
2017-10-30T16:20:25.672Z,2.90
2017-10-30T16:22:53.136Z,3.00
2017-10-30T16:25:20.570Z,4.00
2017-10-30T16:27:48.761Z,2.13
2017-10-30T16:30:16.179Z,2.57
2017-10-30T16:32:44.383Z,3.13
2017-10-30T16:35:11.808Z,4.10
2017-10-30T16:37:39.227Z,3.90
2017-10-30T16:40:06.660Z,3.57
2017-10-30T16:42:34.087Z,2.73
2017-10-30T16:45:02.280Z,2.80
2017-10-30T16:47:30.507Z,2.93
2017-10-30T16:49:57.917Z,3.20
2017-10-30T16:52:25.341Z,4.40
2017-10-30T16:54:52.764Z,3.40
2017-10-30T16:57:20.187Z,3.70
2017-10-30T16:59:47.616Z,3.60
2017-10-30T17:02:15.803Z,3.70
2017-10-30T17:04:44.006Z,3.13
2017-10-30T17:07:11.428Z,3.40
2017-10-30T17:09:39.629Z,3.30
2017-10-30T17:12:07.049Z,3.40
2017-10-30T17:14:34.476Z,3.50
2017-10-30T17:17:01.911Z,4.30
2017-10-30T17:19:29.342Z,3.77
2017-10-30T17:21:56.776Z,3.43
2017-10-30T17:24:24.204Z,3.80
2017-10-30T17:26:51.633Z,3.67
2017-10-30T17:29:19.077Z,5.23
2017-10-30T17:31:47.525Z,3.77
2017-10-30T17:34:14.941Z,3.73
2017-10-30T17:36:42.376Z,4.20
2017-10-30T17:39:09.801Z,3.80
2017-10-30T17:41:37.233Z,4.20
2017-10-30T17:44:04.660Z,4.10
2017-10-30T17:46:32.104Z,3.73
2017-10-30T17:48:59.539Z,4.07
2017-10-30T17:51:27.736Z,5.00
2017-10-30T17:53:55.165Z,4.60
2017-10-30T17:56:23.359Z,3.80
2017-10-30T17:58:50.784Z,4.83
2017-10-30T18:01:18.220Z,4.40
2017-10-30T18:03:45.645Z,4.03
2017-10-30T18:06:13.091Z,4.10
2017-10-30T18:08:40.513Z,4.13
2017-10-30T18:11:07.940Z,4.10
2017-10-30T18:13:35.375Z,4.30
2017-10-30T18:16:02.791Z,5.17
2017-10-30T18:18:30.996Z,5.20
2017-10-30T18:20:58.416Z,4.53
2017-10-30T18:23:25.851Z,4.20
2017-10-30T18:25:53.283Z,4.50
2017-10-30T18:28:20.754Z,4.60
2017-10-30T18:30:48.139Z,5.50
2017-10-30T18:33:15.571Z,4.97
2017-10-30T18:35:42.991Z,4.23
2017-10-30T18:38:10.419Z,5.47
2017-10-30T18:40:38.611Z,4.97
2017-10-30T18:43:06.035Z,4.90
2017-10-30T18:45:33.459Z,5.00
2017-10-30T18:48:01.647Z,5.53
2017-10-30T18:50:29.073Z,4.40
2017-10-30T18:52:56.492Z,5.60
2017-10-30T18:55:24.688Z,4.33
2017-10-30T18:57:52.113Z,5.90
2017-10-30T19:00:19.537Z,4.50
2017-10-30T19:02:46.962Z,5.43
2017-10-30T19:05:14.384Z,5.40
2017-10-30T19:07:41.800Z,4.83
2017-10-30T19:10:09.234Z,4.97
2017-10-30T19:12:36.676Z,4.60
2017-10-30T19:15:04.868Z,4.57
2017-10-30T19:17:32.300Z,5.03
2017-10-30T19:20:00.487Z,4.90
2017-10-30T19:22:27.916Z,5.47
2017-10-30T19:24:55.340Z,4.20
2017-10-30T19:27:22.767Z,5.70
2017-10-30T19:29:50.187Z,5.40
2017-10-30T19:32:17.624Z,5.67
2017-10-30T19:34:45.051Z,5.60
2017-10-30T19:37:12.489Z,5.20
2017-10-30T19:39:39.900Z,5.80
2017-10-30T19:42:07.336Z,7.43
2017-10-30T19:44:34.757Z,5.67
2017-10-30T19:47:02.188Z,6.50
2017-10-30T19:49:29.607Z,5.67
2017-10-30T19:51:57.038Z,7.10
2017-10-30T19:54:24.466Z,6.00
2017-10-30T19:56:52.655Z,5.30
2017-10-30T19:59:20.066Z,5.83
2017-10-30T20:01:47.500Z,6.73
2017-10-30T20:04:14.924Z,5.30
2017-10-30T20:06:48.858Z,6.53
2017-10-30T20:09:21.992Z,7.00
2017-10-30T20:14:54.288Z,7.40
2017-10-30T20:17:21.716Z,6.80
2017-10-30T20:19:49.138Z,6.43
2017-10-30T20:22:16.592Z,6.10
2017-10-30T20:24:44.004Z,7.40
2017-10-30T20:27:11.426Z,7.03
2017-10-30T20:29:39.160Z,8.10
2017-10-30T20:32:07.336Z,7.20
2017-10-30T20:34:34.763Z,6.20
2017-10-30T20:37:02.188Z,7.90
2017-10-30T20:39:29.615Z,7.03
2017-10-30T20:41:57.036Z,6.87
2017-10-30T20:44:24.464Z,6.70
2017-10-30T20:46:51.949Z,6.40
2017-10-30T20:49:19.384Z,5.77
2017-10-30T20:51:46.816Z,5.80
2017-10-30T20:54:14.320Z,6.20
2017-10-30T20:56:41.744Z,7.53
2017-10-30T20:59:09.171Z,7.80
2017-10-30T21:01:36.598Z,6.13
2017-10-30T21:04:04.043Z,7.00
2017-10-30T21:06:31.475Z,8.07
2017-10-30T21:08:58.889Z,7.20
2017-10-30T21:11:26.320Z,8.33
2017-10-30T21:13:53.740Z,9.20
2017-10-30T21:16:21.171Z,9.70
2017-10-30T21:18:48.592Z,8.90
2017-10-30T21:21:16.019Z,9.00
2017-10-30T21:23:43.440Z,9.03
2017-10-30T21:26:10.883Z,9.53
2017-10-30T21:28:39.128Z,9.27
2017-10-30T21:31:06.600Z,10.50
2017-10-30T21:33:35.072Z,9.20
2017-10-30T21:36:02.533Z,8.40
2017-10-30T21:38:29.979Z,8.13
2017-10-30T21:40:57.431Z,9.60
2017-10-30T21:43:24.957Z,11.30
2017-10-30T21:45:52.460Z,11.47
2017-10-30T21:48:19.927Z,13.20
2017-10-30T21:50:48.197Z,12.23
2017-10-30T21:53:15.647Z,11.77
2017-10-30T21:55:43.216Z,11.70
2017-10-30T21:58:10.657Z,11.40
2017-10-30T22:00:38.153Z,12.13
2017-10-30T22:03:06.404Z,12.80
2017-10-30T22:05:33.832Z,10.87
2017-10-30T22:08:01.269Z,11.23
2017-10-30T22:10:28.696Z,11.07
2017-10-30T22:12:56.897Z,10.60
2017-10-30T22:15:24.311Z,9.67
2017-10-30T22:17:54.349Z,8.97
2017-10-30T22:20:22.537Z,9.07
2017-10-30T22:22:49.967Z,8.70
2017-10-30T22:25:18.232Z,8.60
2017-10-30T22:27:45.651Z,9.20
2017-10-30T22:30:13.080Z,9.53
2017-10-30T22:32:40.500Z,9.07
2017-10-30T22:35:07.940Z,8.50
2017-10-30T22:37:35.360Z,9.00
2017-10-30T22:40:02.791Z,7.77
2017-10-30T22:42:30.976Z,7.90
2017-10-30T22:44:58.401Z,8.93
2017-10-30T22:47:25.820Z,7.20
2017-10-30T22:49:53.265Z,7.90
2017-10-30T22:52:20.685Z,9.23
2017-10-30T22:54:48.875Z,8.20
2017-10-30T22:57:16.300Z,8.17
2017-10-30T22:59:43.729Z,9.77
2017-10-30T23:02:11.149Z,8.70
2017-10-30T23:04:38.580Z,8.87
2017-10-30T23:07:06.764Z,8.77
2017-10-30T23:09:34.960Z,8.43
2017-10-30T23:12:02.401Z,7.90
2017-10-30T23:14:30.585Z,9.37
2017-10-30T23:16:58.112Z,8.50
2017-10-30T23:19:25.528Z,9.50
2017-10-30T23:21:52.963Z,7.60
2017-10-30T23:24:20.381Z,8.33
2017-10-30T23:26:47.811Z,9.40
2017-10-30T23:29:15.246Z,7.50
2017-10-30T23:31:42.688Z,8.50
2017-10-30T23:34:10.104Z,8.70
2017-10-30T23:36:37.535Z,9.00
2017-10-30T23:39:04.979Z,9.20
2017-10-30T23:41:32.404Z,9.30
2017-10-30T23:43:59.834Z,7.70
2017-10-30T23:46:27.261Z,9.80
2017-10-30T23:48:54.699Z,8.90
2017-10-30T23:51:22.120Z,8.00
2017-10-30T23:53:50.319Z,10.17
2017-10-30T23:56:17.740Z,8.33
2017-10-30T23:58:45.163Z,7.90
